sensor_id;sensor_type;location;lat;lon;timestamp;pressure;altitude;pressure_sealevel;temperature;humidity
64908;BME280;69061;52.236;5.188;2023-10-13T00:00:47;101073.94;;;17.60;100.00
64908;BME280;69061;52.236;5.188;2023-10-13T00:03:13;101062.03;;;17.61;100.00
64908;BME280;69061;52.236;5.188;2023-10-13T00:05:42;101058.59;;;17.60;100.00
64908;BME280;69061;52.236;5.188;2023-10-13T00:08:10;101070.00;;;17.68;100.00
64908;BME280;69061;52.236;5.188;2023-10-13T00:10:37;101066.56;;;17.67;100.00
64908;BME280;69061;52.236;5.188;2023-10-13T00:13:04;101065.31;;;17.72;100.00
64908;BME280;69061;52.236;5.188;2023-10-13T00:15:39;101057.72;;;17.67;100.00
64908;BME280;69061;52.236;5.188;2023-10-13T00:18:10;101055.75;;;17.71;100.00
64908;BME280;69061;52.236;5.188;2023-10-13T00:20:40;101058.09;;;17.69;100.00
64908;BME280;69061;52.236;5.188;2023-10-13T00:23:14;101043.13;;;17.68;100.00
64908;BME280;69061;52.236;5.188;2023-10-13T00:25:46;101051.25;;;17.64;100.00
64908;BME280;69061;52.236;5.188;2023-10-13T00:28:16;101051.25;;;17.64;100.00
64908;BME280;69061;52.236;5.188;2023-10-13T00:30:49;101044.38;;;17.60;100.00
64908;BME280;69061;52.236;5.188;2023-10-13T00:33:17;101040.13;;;17.62;100.00
64908;BME280;69061;52.236;5.188;2023-10-13T00:35:45;101032.44;;;17.64;100.00
64908;BME280;69061;52.236;5.188;2023-10-13T00:38:14;101036.69;;;17.62;100.00
64908;BME280;69061;52.236;5.188;2023-10-13T00:40:43;101033.94;;;17.65;100.00
64908;BME280;69061;52.236;5.188;2023-10-13T00:43:17;101029.34;;;17.66;100.00
64908;BME280;69061;52.236;5.188;2023-10-13T00:46:00;101028.56;;;17.65;100.00
64908;BME280;69061;52.236;5.188;2023-10-13T00:48:38;101022.53;;;17.58;100.00
64908;BME280;69061;52.236;5.188;2023-10-13T00:51:09;101019.94;;;17.50;100.00
64908;BME280;69061;52.236;5.188;2023-10-13T00:53:45;101026.81;;;17.55;100.00
64908;BME280;69061;52.236;5.188;2023-10-13T00:56:13;101018.03;;;17.51;100.00
64908;BME280;69061;52.236;5.188;2023-10-13T00:58:47;101010.41;;;17.46;100.00
64908;BME280;69061;52.236;5.188;2023-10-13T01:01:16;101009.16;;;17.54;100.00
64908;BME280;69061;52.236;5.188;2023-10-13T01:03:48;101006.47;;;17.54;100.00
64908;BME280;69061;52.236;5.188;2023-10-13T01:06:16;101008.75;;;17.56;100.00
64908;BME280;69061;52.236;5.188;2023-10-13T01:08:42;101006.81;;;17.56;100.00
64908;BME280;69061;52.236;5.188;2023-10-13T01:11:11;101000.69;;;17.56;100.00
64908;BME280;69061;52.236;5.188;2023-10-13T01:13:38;100993.84;;;17.51;100.00
64908;BME280;69061;52.236;5.188;2023-10-13T01:16:07;100993.06;;;17.50;100.00
64908;BME280;69061;52.236;5.188;2023-10-13T01:18:33;100992.66;;;17.52;100.00
64908;BME280;69061;52.236;5.188;2023-10-13T01:21:05;100987.34;;;17.48;100.00
64908;BME280;69061;52.236;5.188;2023-10-13T01:23:32;100975.75;;;17.55;100.00
64908;BME280;69061;52.236;5.188;2023-10-13T01:26:03;100967.72;;;17.51;100.00
64908;BME280;69061;52.236;5.188;2023-10-13T01:28:30;100970.78;;;17.54;100.00
64908;BME280;69061;52.236;5.188;2023-10-13T01:31:10;100971.94;;;17.53;100.00
64908;BME280;69061;52.236;5.188;2023-10-13T01:33:37;100960.09;;;17.50;100.00
64908;BME280;69061;52.236;5.188;2023-10-13T01:36:04;100956.66;;;17.49;100.00
64908;BME280;69061;52.236;5.188;2023-10-13T01:38:36;100954.59;;;17.57;100.00
64908;BME280;69061;52.236;5.188;2023-10-13T01:41:05;100957.34;;;17.54;100.00
64908;BME280;69061;52.236;5.188;2023-10-13T01:43:34;100951.84;;;17.61;100.00
64908;BME280;69061;52.236;5.188;2023-10-13T01:46:00;100951.91;;;17.57;100.00
64908;BME280;69061;52.236;5.188;2023-10-13T01:48:29;100942.31;;;17.56;100.00
64908;BME280;69061;52.236;5.188;2023-10-13T01:50:57;100944.94;;;17.60;100.00
64908;BME280;69061;52.236;5.188;2023-10-13T01:53:25;100948.47;;;17.57;100.00
64908;BME280;69061;52.236;5.188;2023-10-13T01:55:55;100940.34;;;17.60;100.00
64908;BME280;69061;52.236;5.188;2023-10-13T01:58:24;100934.91;;;17.64;100.00
64908;BME280;69061;52.236;5.188;2023-10-13T02:00:51;100942.56;;;17.65;100.00
64908;BME280;69061;52.236;5.188;2023-10-13T02:03:17;100938.81;;;17.59;100.00
64908;BME280;69061;52.236;5.188;2023-10-13T02:05:47;100931.94;;;17.58;100.00
64908;BME280;69061;52.236;5.188;2023-10-13T02:08:14;100931.94;;;17.58;100.00
64908;BME280;69061;52.236;5.188;2023-10-13T02:10:47;100933.88;;;17.58;100.00
64908;BME280;69061;52.236;5.188;2023-10-13T02:13:16;100931.94;;;17.58;100.00
64908;BME280;69061;52.236;5.188;2023-10-13T02:15:43;100915.09;;;17.54;100.00
64908;BME280;69061;52.236;5.188;2023-10-13T02:18:13;100927.72;;;17.57;100.00
64908;BME280;69061;52.236;5.188;2023-10-13T02:20:40;100921.94;;;17.59;100.00
64908;BME280;69061;52.236;5.188;2023-10-13T02:23:11;100915.38;;;17.60;100.00
64908;BME280;69061;52.236;5.188;2023-10-13T02:25:37;100921.06;;;17.65;100.00
64908;BME280;69061;52.236;5.188;2023-10-13T02:28:11;100913.94;;;17.55;100.00
64908;BME280;69061;52.236;5.188;2023-10-13T02:30:41;100903.53;;;17.57;100.00
64908;BME280;69061;52.236;5.188;2023-10-13T02:33:11;100905.06;;;17.58;100.00
64908;BME280;69061;52.236;5.188;2023-10-13T02:35:38;100898.16;;;17.57;100.00
64908;BME280;69061;52.236;5.188;2023-10-13T02:38:09;100887.78;;;17.59;100.00
64908;BME280;69061;52.236;5.188;2023-10-13T02:40:37;100884.72;;;17.57;100.00
64908;BME280;69061;52.236;5.188;2023-10-13T02:43:04;100878.94;;;17.59;100.00
64908;BME280;69061;52.236;5.188;2023-10-13T02:45:31;100873.56;;;17.59;100.00
64908;BME280;69061;52.236;5.188;2023-10-13T02:47:59;100861.66;;;17.60;100.00
64908;BME280;69061;52.236;5.188;2023-10-13T02:50:41;100858.22;;;17.59;100.00
64908;BME280;69061;52.236;5.188;2023-10-13T02:53:11;100856.28;;;17.60;100.00
64908;BME280;69061;52.236;5.188;2023-10-13T02:55:50;100855.84;;;17.61;100.00
64908;BME280;69061;52.236;5.188;2023-10-13T02:58:16;100848.97;;;17.60;100.00
64908;BME280;69061;52.236;5.188;2023-10-13T03:00:43;100850.16;;;17.59;100.00
64908;BME280;69061;52.236;5.188;2023-10-13T03:03:12;100837.88;;;17.58;100.00
64908;BME280;69061;52.236;5.188;2023-10-13T03:05:40;100825.59;;;17.57;100.00
64908;BME280;69061;52.236;5.188;2023-10-13T03:08:08;100812.94;;;17.58;100.00
64908;BME280;69061;52.236;5.188;2023-10-13T03:10:37;100815.22;;;17.59;100.00
64908;BME280;69061;52.236;5.188;2023-10-13T03:13:11;100809.06;;;17.59;100.00
64908;BME280;69061;52.236;5.188;2023-10-13T03:15:36;100802.94;;;17.58;100.00
64908;BME280;69061;52.236;5.188;2023-10-13T03:18:03;100802.94;;;17.58;100.00
64908;BME280;69061;52.236;5.188;2023-10-13T03:20:31;100801.41;;;17.57;100.00
64908;BME280;69061;52.236;5.188;2023-10-13T03:22:58;100793.34;;;17.57;100.00
64908;BME280;69061;52.236;5.188;2023-10-13T03:25:25;100783.44;;;17.54;100.00
64908;BME280;69061;52.236;5.188;2023-10-13T03:27:55;100785.72;;;17.56;100.00
64908;BME280;69061;52.236;5.188;2023-10-13T03:30:30;100770.00;;;17.54;100.00
64908;BME280;69061;52.236;5.188;2023-10-13T03:33:05;100771.53;;;17.55;100.00
64908;BME280;69061;52.236;5.188;2023-10-13T03:35:37;100765.38;;;17.55;100.00
64908;BME280;69061;52.236;5.188;2023-10-13T03:38:05;100760.78;;;17.55;100.00
64908;BME280;69061;52.236;5.188;2023-10-13T03:40:42;100743.88;;;17.55;100.00
64908;BME280;69061;52.236;5.188;2023-10-13T03:43:14;100752.72;;;17.55;100.00
64908;BME280;69061;52.236;5.188;2023-10-13T03:45:48;100740.44;;;17.54;100.00
64908;BME280;69061;52.236;5.188;2023-10-13T03:48:18;100734.66;;;17.56;100.00
64908;BME280;69061;52.236;5.188;2023-10-13T03:50:57;100710.88;;;17.54;100.00
64908;BME280;69061;52.236;5.188;2023-10-13T03:53:29;100712.75;;;17.57;100.00
64908;BME280;69061;52.236;5.188;2023-10-13T03:55:59;100696.72;;;17.54;100.00
64908;BME280;69061;52.236;5.188;2023-10-13T03:58:34;100687.53;;;17.51;100.00
64908;BME280;69061;52.236;5.188;2023-10-13T04:01:02;100677.97;;;17.50;100.00
64908;BME280;69061;52.236;5.188;2023-10-13T04:03:29;100662.53;;;17.54;100.00
64908;BME280;69061;52.236;5.188;2023-10-13T04:06:04;100667.63;;;17.48;100.00
64908;BME280;69061;52.236;5.188;2023-10-13T04:08:33;100660.78;;;17.44;100.00
64908;BME280;69061;52.236;5.188;2023-10-13T04:11:15;100671.53;;;17.44;100.00
64908;BME280;69061;52.236;5.188;2023-10-13T04:14:00;100656.19;;;17.44;100.00
64908;BME280;69061;52.236;5.188;2023-10-13T04:16:43;100658.19;;;17.40;100.00
64908;BME280;69061;52.236;5.188;2023-10-13T04:19:17;100654.41;;;17.38;100.00
64908;BME280;69061;52.236;5.188;2023-10-13T04:21:51;100645.94;;;17.39;100.00
64908;BME280;69061;52.236;5.188;2023-10-13T04:24:25;100640.13;;;17.41;100.00
64908;BME280;69061;52.236;5.188;2023-10-13T04:27:25;100629.97;;;17.32;100.00
64908;BME280;69061;52.236;5.188;2023-10-13T04:30:10;100632.97;;;17.34;100.00
64908;BME280;69061;52.236;5.188;2023-10-13T04:32:42;100627.75;;;17.27;100.00
64908;BME280;69061;52.236;5.188;2023-10-13T04:35:13;100619.69;;;17.27;100.00
64908;BME280;69061;52.236;5.188;2023-10-13T04:37:45;100609.44;;;17.22;100.00
64908;BME280;69061;52.236;5.188;2023-10-13T04:40:18;100606.00;;;17.21;100.00
64908;BME280;69061;52.236;5.188;2023-10-13T04:42:50;100603.31;;;17.21;100.00
64908;BME280;69061;52.236;5.188;2023-10-13T04:45:17;100598.28;;;17.23;100.00
64908;BME280;69061;52.236;5.188;2023-10-13T04:48:04;100609.44;;;17.22;100.00
64908;BME280;69061;52.236;5.188;2023-10-13T04:50:44;100604.38;;;17.24;100.00
64908;BME280;69061;52.236;5.188;2023-10-13T04:53:13;100606.69;;;17.25;100.00
64908;BME280;69061;52.236;5.188;2023-10-13T04:55:54;100598.63;;;17.25;100.00
64908;BME280;69061;52.236;5.188;2023-10-13T04:58:54;100587.09;;;17.25;100.00
64908;BME280;69061;52.236;5.188;2023-10-13T05:01:46;100585.53;;;17.27;100.00
64908;BME280;69061;52.236;5.188;2023-10-13T05:04:47;100573.13;;;17.33;100.00
64908;BME280;69061;52.236;5.188;2023-10-13T05:07:31;100543.91;;;17.36;100.00
64908;BME280;69061;52.236;5.188;2023-10-13T05:10:18;100553.84;;;17.39;100.00
64908;BME280;69061;52.236;5.188;2023-10-13T05:13:02;100557.28;;;17.39;100.00
64908;BME280;69061;52.236;5.188;2023-10-13T05:15:47;100558.63;;;17.47;100.00
64908;BME280;69061;52.236;5.188;2023-10-13T05:18:32;100562.84;;;17.48;100.00
64908;BME280;69061;52.236;5.188;2023-10-13T05:21:16;100577.72;;;17.53;100.00
64908;BME280;69061;52.236;5.188;2023-10-13T05:24:00;100572.53;;;17.62;100.00
64908;BME280;69061;52.236;5.188;2023-10-13T05:26:46;100564.81;;;17.64;100.00
64908;BME280;69061;52.236;5.188;2023-10-13T05:29:30;100564.47;;;17.62;100.00
64908;BME280;69061;52.236;5.188;2023-10-13T05:32:14;100547.84;;;17.67;100.00
64908;BME280;69061;52.236;5.188;2023-10-13T05:34:58;100545.84;;;17.72;100.00
64908;BME280;69061;52.236;5.188;2023-10-13T05:37:42;100538.50;;;17.72;100.00
64908;BME280;69061;52.236;5.188;2023-10-13T05:40:26;100545.75;;;17.75;100.00
64908;BME280;69061;52.236;5.188;2023-10-13T05:43:11;100542.66;;;17.77;100.00
64908;BME280;69061;52.236;5.188;2023-10-13T05:45:57;100543.41;;;17.77;100.00
64908;BME280;69061;52.236;5.188;2023-10-13T05:49:02;100528.38;;;17.80;100.00
64908;BME280;69061;52.236;5.188;2023-10-13T05:51:44;100527.63;;;17.79;100.00
64908;BME280;69061;52.236;5.188;2023-10-13T05:54:22;100525.25;;;17.81;100.00
64908;BME280;69061;52.236;5.188;2023-10-13T05:57:06;100522.50;;;17.85;100.00
64908;BME280;69061;52.236;5.188;2023-10-13T05:59:52;100521.41;;;17.82;100.00
64908;BME280;69061;52.236;5.188;2023-10-13T06:02:35;100516.09;;;17.79;100.00
64908;BME280;69061;52.236;5.188;2023-10-13T06:05:19;100517.97;;;17.82;100.00
64908;BME280;69061;52.236;5.188;2023-10-13T06:08:04;100507.28;;;17.78;100.00
64908;BME280;69061;52.236;5.188;2023-10-13T06:10:48;100516.09;;;17.79;100.00
64908;BME280;69061;52.236;5.188;2023-10-13T06:13:33;100507.72;;;17.77;100.00
64908;BME280;69061;52.236;5.188;2023-10-13T06:16:18;100513.50;;;17.75;100.00
64908;BME280;69061;52.236;5.188;2023-10-13T06:19:03;100511.22;;;17.74;100.00
64908;BME280;69061;52.236;5.188;2023-10-13T06:21:47;100502.16;;;17.67;100.00
64908;BME280;69061;52.236;5.188;2023-10-13T06:24:31;100495.50;;;17.72;100.00
64908;BME280;69061;52.236;5.188;2023-10-13T06:27:18;100490.97;;;17.69;100.00
64908;BME280;69061;52.236;5.188;2023-10-13T06:30:03;100488.72;;;17.67;100.00
64908;BME280;69061;52.236;5.188;2023-10-13T06:32:31;100476.44;;;17.66;100.00
64908;BME280;69061;52.236;5.188;2023-10-13T06:34:58;100475.28;;;17.67;100.00
64908;BME280;69061;52.236;5.188;2023-10-13T06:37:30;100484.44;;;17.70;100.00
64908;BME280;69061;52.236;5.188;2023-10-13T06:40:00;100470.56;;;17.72;100.00
64908;BME280;69061;52.236;5.188;2023-10-13T06:42:31;100473.34;;;17.68;100.00
64908;BME280;69061;52.236;5.188;2023-10-13T06:45:00;100469.47;;;17.69;100.00
64908;BME280;69061;52.236;5.188;2023-10-13T06:47:35;100474.84;;;17.69;100.00
64908;BME280;69061;52.236;5.188;2023-10-13T06:50:05;100476.38;;;17.70;100.00
64908;BME280;69061;52.236;5.188;2023-10-13T06:52:40;100460.56;;;17.72;100.00
64908;BME280;69061;52.236;5.188;2023-10-13T06:55:07;100461.78;;;17.71;100.00
64908;BME280;69061;52.236;5.188;2023-10-13T06:57:36;100461.66;;;17.75;100.00
64908;BME280;69061;52.236;5.188;2023-10-13T07:00:09;100450.91;;;17.75;100.00
64908;BME280;69061;52.236;5.188;2023-10-13T07:02:46;100451.69;;;17.75;100.00
64908;BME280;69061;52.236;5.188;2023-10-13T07:05:13;100446.22;;;17.79;100.00
64908;BME280;69061;52.236;5.188;2023-10-13T07:07:40;100446.56;;;17.81;100.00
64908;BME280;69061;52.236;5.188;2023-10-13T07:10:08;100440.75;;;17.82;100.00
64908;BME280;69061;52.236;5.188;2023-10-13T07:12:36;100433.00;;;17.84;100.00
64908;BME280;69061;52.236;5.188;2023-10-13T07:15:09;100426.38;;;17.89;100.00
64908;BME280;69061;52.236;5.188;2023-10-13T07:17:46;100415.94;;;17.91;100.00
64908;BME280;69061;52.236;5.188;2023-10-13T07:20:19;100408.50;;;17.99;100.00
64908;BME280;69061;52.236;5.188;2023-10-13T07:22:58;100418.06;;;18.00;100.00
64908;BME280;69061;52.236;5.188;2023-10-13T07:25:28;100416.78;;;18.05;100.00
64908;BME280;69061;52.236;5.188;2023-10-13T07:27:58;100405.19;;;18.08;100.00
64908;BME280;69061;52.236;5.188;2023-10-13T07:30:25;100411.63;;;18.10;100.00
64908;BME280;69061;52.236;5.188;2023-10-13T07:32:54;100421.47;;;18.17;100.00
64908;BME280;69061;52.236;5.188;2023-10-13T07:35:25;100418.38;;;18.18;100.00
64908;BME280;69061;52.236;5.188;2023-10-13T07:37:52;100415.56;;;18.22;100.00
64908;BME280;69061;52.236;5.188;2023-10-13T07:40:21;100410.53;;;18.24;100.00
64908;BME280;69061;52.236;5.188;2023-10-13T07:43:05;100385.38;;;18.31;100.00
64908;BME280;69061;52.236;5.188;2023-10-13T07:45:36;100381.81;;;18.34;100.00
64908;BME280;69061;52.236;5.188;2023-10-13T07:48:06;100411.31;;;18.38;100.00
64908;BME280;69061;52.236;5.188;2023-10-13T07:50:38;100407.03;;;18.40;100.00
64908;BME280;69061;52.236;5.188;2023-10-13T07:53:05;100390.44;;;18.42;100.00
64908;BME280;69061;52.236;5.188;2023-10-13T07:55:44;100401.00;;;18.49;100.00
64908;BME280;69061;52.236;5.188;2023-10-13T07:58:12;100390.25;;;18.49;100.00
64908;BME280;69061;52.236;5.188;2023-10-13T08:00:39;100395.97;;;18.51;100.00
64908;BME280;69061;52.236;5.188;2023-10-13T08:03:20;100385.84;;;18.55;100.00
64908;BME280;69061;52.236;5.188;2023-10-13T08:06:00;100386.91;;;18.58;100.00
64908;BME280;69061;52.236;5.188;2023-10-13T08:08:32;100373.34;;;18.61;100.00
64908;BME280;69061;52.236;5.188;2023-10-13T08:11:04;100377.13;;;18.64;100.00
64908;BME280;69061;52.236;5.188;2023-10-13T08:13:37;100379.50;;;18.62;100.00
64908;BME280;69061;52.236;5.188;2023-10-13T08:16:04;100375.94;;;18.78;100.00
64908;BME280;69061;52.236;5.188;2023-10-13T08:18:35;100360.56;;;18.78;100.00
64908;BME280;69061;52.236;5.188;2023-10-13T08:21:06;100357.00;;;18.81;100.00
64908;BME280;69061;52.236;5.188;2023-10-13T08:23:41;100364.34;;;18.81;100.00
64908;BME280;69061;52.236;5.188;2023-10-13T08:26:22;100357.22;;;18.87;100.00
64908;BME280;69061;52.236;5.188;2023-10-13T08:29:07;100367.03;;;18.94;100.00
64908;BME280;69061;52.236;5.188;2023-10-13T08:31:48;100362.19;;;19.01;100.00
64908;BME280;69061;52.236;5.188;2023-10-13T08:34:37;100347.22;;;19.00;100.00
64908;BME280;69061;52.236;5.188;2023-10-13T08:37:05;100351.72;;;19.04;100.00
64908;BME280;69061;52.236;5.188;2023-10-13T08:39:45;100355.72;;;19.12;100.00
64908;BME280;69061;52.236;5.188;2023-10-13T08:42:40;100362.16;;;19.14;100.00
64908;BME280;69061;52.236;5.188;2023-10-13T08:45:18;100347.41;;;19.19;100.00
64908;BME280;69061;52.236;5.188;2023-10-13T08:48:08;100345.38;;;19.23;100.00
64908;BME280;69061;52.236;5.188;2023-10-13T08:50:43;100350.41;;;19.21;100.00
64908;BME280;69061;52.236;5.188;2023-10-13T08:53:14;100345.56;;;19.29;100.00
64908;BME280;69061;52.236;5.188;2023-10-13T08:55:52;100335.41;;;19.33;100.00
64908;BME280;69061;52.236;5.188;2023-10-13T08:58:26;100347.78;;;19.43;99.86
64908;BME280;69061;52.236;5.188;2023-10-13T09:01:13;100341.63;;;19.43;99.80
64908;BME280;69061;52.236;5.188;2023-10-13T09:03:57;100350.78;;;19.45;98.94
64908;BME280;69061;52.236;5.188;2023-10-13T09:06:47;100358.88;;;19.45;98.89
64908;BME280;69061;52.236;5.188;2023-10-13T09:09:23;100347.56;;;19.50;98.40
64908;BME280;69061;52.236;5.188;2023-10-13T09:12:00;100329.00;;;19.52;98.66
64908;BME280;69061;52.236;5.188;2023-10-13T09:14:35;100327.94;;;19.50;98.66
64908;BME280;69061;52.236;5.188;2023-10-13T09:17:06;100316.84;;;19.48;98.16
64908;BME280;69061;52.236;5.188;2023-10-13T09:19:50;100319.97;;;19.46;98.00
64908;BME280;69061;52.236;5.188;2023-10-13T09:22:24;100319.72;;;19.53;98.80
64908;BME280;69061;52.236;5.188;2023-10-13T09:24:57;100316.59;;;19.55;97.76
64908;BME280;69061;52.236;5.188;2023-10-13T09:27:30;100323.03;;;19.58;97.82
64908;BME280;69061;52.236;5.188;2023-10-13T09:29:58;100308.50;;;19.55;97.82
64908;BME280;69061;52.236;5.188;2023-10-13T09:32:32;100301.69;;;19.63;96.90
64908;BME280;69061;52.236;5.188;2023-10-13T09:35:09;100304.81;;;19.62;96.95
64908;BME280;69061;52.236;5.188;2023-10-13T09:37:40;100291.31;;;19.62;96.46
64908;BME280;69061;52.236;5.188;2023-10-13T09:40:07;100293.78;;;19.69;96.45
64908;BME280;69061;52.236;5.188;2023-10-13T09:42:50;100287.63;;;19.68;96.34
64908;BME280;69061;52.236;5.188;2023-10-13T09:45:16;100280.00;;;19.67;96.85
64908;BME280;69061;52.236;5.188;2023-10-13T09:47:46;100279.13;;;19.70;96.63
64908;BME280;69061;52.236;5.188;2023-10-13T09:50:13;100265.22;;;19.72;96.28
64908;BME280;69061;52.236;5.188;2023-10-13T09:52:51;100275.00;;;19.78;95.51
64908;BME280;69061;52.236;5.188;2023-10-13T09:55:22;100275.00;;;19.78;95.60
64908;BME280;69061;52.236;5.188;2023-10-13T09:57:58;100256.44;;;19.80;94.92
64908;BME280;69061;52.236;5.188;2023-10-13T10:00:34;100244.47;;;19.81;94.70
64908;BME280;69061;52.236;5.188;2023-10-13T10:03:23;100263.84;;;19.89;93.33
64908;BME280;69061;52.236;5.188;2023-10-13T10:06:06;100247.78;;;19.85;93.45
64908;BME280;69061;52.236;5.188;2023-10-13T10:08:42;100257.63;;;20.01;92.04
64908;BME280;69061;52.236;5.188;2023-10-13T10:11:33;100247.13;;;20.03;90.75
64908;BME280;69061;52.236;5.188;2023-10-13T10:14:16;100247.75;;;20.08;90.74
64908;BME280;69061;52.236;5.188;2023-10-13T10:16:50;100256.03;;;20.13;91.15
64908;BME280;69061;52.236;5.188;2023-10-13T10:19:17;100250.34;;;20.21;90.04
64908;BME280;69061;52.236;5.188;2023-10-13T10:21:46;100237.47;;;20.25;88.96
64908;BME280;69061;52.236;5.188;2023-10-13T10:24:16;100238.72;;;20.33;87.99
64908;BME280;69061;52.236;5.188;2023-10-13T10:26:53;100210.38;;;20.38;88.57
64908;BME280;69061;52.236;5.188;2023-10-13T10:29:20;100215.50;;;20.45;87.80
64908;BME280;69061;52.236;5.188;2023-10-13T10:31:46;100229.31;;;20.56;87.52
64908;BME280;69061;52.236;5.188;2023-10-13T10:34:13;100229.34;;;20.65;87.01
64908;BME280;69061;52.236;5.188;2023-10-13T10:36:46;100211.56;;;20.77;86.35
64908;BME280;69061;52.236;5.188;2023-10-13T10:39:16;100213.22;;;20.93;85.19
64908;BME280;69061;52.236;5.188;2023-10-13T10:41:43;100213.06;;;21.06;84.86
64908;BME280;69061;52.236;5.188;2023-10-13T10:44:17;100205.41;;;21.14;85.11
64908;BME280;69061;52.236;5.188;2023-10-13T10:46:47;100205.69;;;21.25;83.99
64908;BME280;69061;52.236;5.188;2023-10-13T10:49:23;100201.94;;;21.32;83.64
64908;BME280;69061;52.236;5.188;2023-10-13T10:51:58;100204.19;;;21.33;82.06
64908;BME280;69061;52.236;5.188;2023-10-13T10:54:30;100185.00;;;21.31;81.95
64908;BME280;69061;52.236;5.188;2023-10-13T10:56:58;100203.31;;;21.36;80.03
64908;BME280;69061;52.236;5.188;2023-10-13T10:59:36;100187.22;;;21.33;80.96
64908;BME280;69061;52.236;5.188;2023-10-13T11:02:04;100189.94;;;21.33;80.59
64908;BME280;69061;52.236;5.188;2023-10-13T11:04:34;100178.06;;;21.30;80.54
64908;BME280;69061;52.236;5.188;2023-10-13T11:07:07;100175.06;;;21.28;80.58
64908;BME280;69061;52.236;5.188;2023-10-13T11:09:37;100179.88;;;21.33;78.68
64908;BME280;69061;52.236;5.188;2023-10-13T11:12:12;100176.28;;;21.27;79.30
64908;BME280;69061;52.236;5.188;2023-10-13T11:14:59;100179.00;;;21.27;79.40
64908;BME280;69061;52.236;5.188;2023-10-13T11:17:28;100162.00;;;21.27;79.44
64908;BME280;69061;52.236;5.188;2023-10-13T11:20:11;100148.94;;;21.25;79.04
64908;BME280;69061;52.236;5.188;2023-10-13T11:22:45;100152.09;;;21.24;79.13
64908;BME280;69061;52.236;5.188;2023-10-13T11:25:22;100150.59;;;21.23;78.98
64908;BME280;69061;52.236;5.188;2023-10-13T11:27:55;100139.19;;;21.18;79.45
64908;BME280;69061;52.236;5.188;2023-10-13T11:30:24;100144.00;;;21.24;79.05
64908;BME280;69061;52.236;5.188;2023-10-13T11:33:08;100152.56;;;21.31;76.86
64908;BME280;69061;52.236;5.188;2023-10-13T11:35:37;100137.22;;;21.37;75.50
64908;BME280;69061;52.236;5.188;2023-10-13T11:38:22;100130.31;;;21.36;76.22
64908;BME280;69061;52.236;5.188;2023-10-13T11:40:54;100122.34;;;21.42;75.82
64908;BME280;69061;52.236;5.188;2023-10-13T11:43:36;100136.56;;;21.52;75.72
64908;BME280;69061;52.236;5.188;2023-10-13T11:46:18;100102.63;;;21.60;72.63
64908;BME280;69061;52.236;5.188;2023-10-13T11:49:05;100138.38;;;21.64;72.63
64908;BME280;69061;52.236;5.188;2023-10-13T11:51:42;100133.25;;;21.66;71.63
64908;BME280;69061;52.236;5.188;2023-10-13T11:54:11;100135.91;;;21.76;71.44
64908;BME280;69061;52.236;5.188;2023-10-13T11:56:39;100130.81;;;21.78;71.21
64908;BME280;69061;52.236;5.188;2023-10-13T11:59:06;100148.22;;;21.77;70.49
64908;BME280;69061;52.236;5.188;2023-10-13T12:01:41;100125.41;;;21.78;69.75
64908;BME280;69061;52.236;5.188;2023-10-13T12:04:22;100141.63;;;21.78;70.73
64908;BME280;69061;52.236;5.188;2023-10-13T12:07:06;100124.66;;;21.77;70.24
64908;BME280;69061;52.236;5.188;2023-10-13T12:09:43;100127.94;;;21.81;70.16
64908;BME280;69061;52.236;5.188;2023-10-13T12:12:30;100129.13;;;21.80;70.12
64908;BME280;69061;52.236;5.188;2023-10-13T12:14:59;100155.72;;;21.82;69.77
64908;BME280;69061;52.236;5.188;2023-10-13T12:17:35;100137.72;;;21.79;70.80
64908;BME280;69061;52.236;5.188;2023-10-13T12:20:05;100143.13;;;21.79;70.42
64908;BME280;69061;52.236;5.188;2023-10-13T12:22:35;100135.47;;;21.77;70.61
64908;BME280;69061;52.236;5.188;2023-10-13T12:25:06;100117.44;;;21.74;71.22
64908;BME280;69061;52.236;5.188;2023-10-13T12:27:46;100121.50;;;21.79;70.58
64908;BME280;69061;52.236;5.188;2023-10-13T12:30:14;100121.75;;;21.81;70.22
64908;BME280;69061;52.236;5.188;2023-10-13T12:32:48;100133.34;;;21.81;70.80
64908;BME280;69061;52.236;5.188;2023-10-13T12:35:24;100117.59;;;21.80;70.11
64908;BME280;69061;52.236;5.188;2023-10-13T12:37:55;100124.00;;;21.82;70.00
64908;BME280;69061;52.236;5.188;2023-10-13T12:40:31;100097.16;;;21.79;70.03
64908;BME280;69061;52.236;5.188;2023-10-13T12:43:17;100101.78;;;21.78;70.14
64908;BME280;69061;52.236;5.188;2023-10-13T12:46:01;100106.47;;;21.78;70.05
64908;BME280;69061;52.236;5.188;2023-10-13T12:48:45;100101.22;;;21.74;70.15
64908;BME280;69061;52.236;5.188;2023-10-13T12:51:42;100113.53;;;21.75;70.19
64908;BME280;69061;52.236;5.188;2023-10-13T12:54:17;100104.72;;;21.65;70.67
64908;BME280;69061;52.236;5.188;2023-10-13T12:56:49;100119.28;;;21.68;70.87
64908;BME280;69061;52.236;5.188;2023-10-13T12:59:23;100124.50;;;21.72;70.77
64908;BME280;69061;52.236;5.188;2023-10-13T13:01:54;100115.22;;;21.63;72.46
64908;BME280;69061;52.236;5.188;2023-10-13T13:04:20;100127.88;;;21.57;73.02
64908;BME280;69061;52.236;5.188;2023-10-13T13:06:49;100118.84;;;21.51;73.85
64908;BME280;69061;52.236;5.188;2023-10-13T13:09:17;100133.75;;;21.46;74.48
64908;BME280;69061;52.236;5.188;2023-10-13T13:11:51;100120.72;;;21.35;74.85
64908;BME280;69061;52.236;5.188;2023-10-13T13:14:25;100119.66;;;21.33;75.15
64908;BME280;69061;52.236;5.188;2023-10-13T13:16:54;100113.66;;;21.29;75.69
64908;BME280;69061;52.236;5.188;2023-10-13T13:19:22;100096.72;;;21.19;76.53